createdAt,value
2023-12-02T00:00:58.838Z,11.72
2023-12-02T00:02:01.278Z,11.83
2023-12-02T00:03:04.840Z,12.02
2023-12-02T00:04:09.089Z,11.86
2023-12-02T00:05:13.164Z,11.93
2023-12-02T00:06:15.566Z,11.51
2023-12-02T00:07:21.400Z,11.58
2023-12-02T00:08:24.831Z,11.85
2023-12-02T00:09:28.169Z,11.71
2023-12-02T00:10:30.748Z,11.79
2023-12-02T00:11:34.435Z,11.96
2023-12-02T00:12:37.026Z,12.22
2023-12-02T00:13:40.694Z,12.33
2023-12-02T00:14:43.958Z,12.24
2023-12-02T00:15:47.286Z,12.29
2023-12-02T00:16:49.896Z,12.23
2023-12-02T00:17:55.311Z,12.13
2023-12-02T00:18:58.156Z,12.05
2023-12-02T00:20:01.873Z,12.17
2023-12-02T00:21:04.393Z,12.37
2023-12-02T00:22:08.479Z,12.26
2023-12-02T00:23:12.694Z,11.97
2023-12-02T00:24:16.192Z,12.00
2023-12-02T00:25:18.518Z,11.84
2023-12-02T00:26:22.255Z,11.91
2023-12-02T00:27:24.504Z,11.79
2023-12-02T00:28:27.709Z,11.62
2023-12-02T00:29:30.061Z,11.62
2023-12-02T00:30:33.533Z,11.60
2023-12-02T00:31:35.935Z,11.68
2023-12-02T00:32:39.811Z,11.80
2023-12-02T00:33:42.261Z,11.70
2023-12-02T00:34:45.688Z,11.90
2023-12-02T00:35:48.238Z,11.59
2023-12-02T00:36:51.706Z,11.64
2023-12-02T00:37:54.233Z,11.44
2023-12-02T00:38:59.240Z,11.41
2023-12-02T00:40:01.679Z,11.31
2023-12-02T00:41:05.328Z,11.50
2023-12-02T00:42:07.801Z,11.65
2023-12-02T00:43:12.384Z,11.56
2023-12-02T00:44:14.744Z,11.62
2023-12-02T00:45:18.824Z,11.85
2023-12-02T00:46:21.159Z,11.60
2023-12-02T00:47:24.671Z,11.82
2023-12-02T00:48:27.420Z,11.75
2023-12-02T00:49:30.986Z,11.71
2023-12-02T00:50:33.274Z,11.87
2023-12-02T00:51:36.944Z,11.86
2023-12-02T00:52:39.447Z,11.95
2023-12-02T00:53:42.958Z,12.08
2023-12-02T00:54:49.601Z,12.12
2023-12-02T00:55:53.112Z,12.12
2023-12-02T00:56:55.498Z,12.13
2023-12-02T00:57:57.946Z,12.13
2023-12-02T00:59:02.996Z,12.34
2023-12-02T01:00:06.852Z,12.36
2023-12-02T01:01:10.614Z,12.48
2023-12-02T01:02:13.765Z,12.49
2023-12-02T01:03:17.243Z,12.51
2023-12-02T01:04:20.235Z,12.69
2023-12-02T01:05:24.566Z,12.29
2023-12-02T01:06:27.017Z,12.10
2023-12-02T01:07:30.620Z,11.79
2023-12-02T01:08:33.526Z,11.69
2023-12-02T01:09:36.836Z,11.84
2023-12-02T01:10:40.558Z,11.92
2023-12-02T01:11:43.924Z,11.94
2023-12-02T01:12:46.238Z,12.10
2023-12-02T01:13:49.650Z,12.28
2023-12-02T01:14:53.892Z,12.63
2023-12-02T01:15:56.219Z,12.24
2023-12-02T01:16:59.567Z,12.33
2023-12-02T01:18:01.905Z,12.22
2023-12-02T01:19:05.301Z,12.04
2023-12-02T01:20:08.934Z,12.07
2023-12-02T01:21:12.391Z,12.09
2023-12-02T01:22:14.776Z,12.06
2023-12-02T01:23:18.055Z,12.00
2023-12-02T01:24:20.252Z,12.03
2023-12-02T01:25:23.869Z,11.85
2023-12-02T01:26:27.508Z,11.78
2023-12-02T01:27:31.013Z,11.56
2023-12-02T01:28:33.333Z,11.33
2023-12-02T01:29:37.132Z,11.15
2023-12-02T01:30:39.462Z,11.07
2023-12-02T01:31:42.758Z,11.14
2023-12-02T01:32:45.086Z,10.99
2023-12-02T01:33:48.550Z,11.18
2023-12-02T01:34:50.837Z,11.14
2023-12-02T01:35:54.302Z,11.16
2023-12-02T01:36:56.689Z,11.39
2023-12-02T01:37:59.984Z,11.49
2023-12-02T01:39:02.212Z,11.62
2023-12-02T01:40:06.087Z,11.72
2023-12-02T01:41:08.669Z,11.78
2023-12-02T01:42:13.379Z,12.08
2023-12-02T01:43:25.414Z,12.13
2023-12-02T01:44:28.715Z,12.06
2023-12-02T01:45:31.002Z,12.04
2023-12-02T01:46:34.414Z,11.95
2023-12-02T01:47:37.376Z,11.78
2023-12-02T01:48:40.920Z,11.92
2023-12-02T01:49:45.438Z,11.79
2023-12-02T01:50:49.263Z,11.40
2023-12-02T01:51:52.074Z,11.12
2023-12-02T01:52:55.504Z,11.35
2023-12-02T01:53:57.823Z,11.39
2023-12-02T01:55:01.106Z,11.48
2023-12-02T01:56:04.221Z,11.50
2023-12-02T01:57:08.716Z,11.41
2023-12-02T01:58:12.516Z,11.23
2023-12-02T01:59:16.411Z,11.04
2023-12-02T02:00:19.217Z,10.79
2023-12-02T02:01:22.597Z,10.89
2023-12-02T02:02:26.938Z,10.87
2023-12-02T02:03:29.256Z,10.66
2023-12-02T02:04:32.644Z,10.41
2023-12-02T02:05:35.744Z,10.38
2023-12-02T02:06:39.800Z,10.34
2023-12-02T02:07:42.147Z,10.62
2023-12-02T02:08:46.181Z,10.58
2023-12-02T02:09:49.648Z,10.71
2023-12-02T02:10:57.419Z,10.74
2023-12-02T02:11:59.674Z,10.98
2023-12-02T02:13:02.897Z,10.88
2023-12-02T02:14:06.569Z,10.98
2023-12-02T02:15:10.711Z,11.05
2023-12-02T02:16:13.762Z,11.26
2023-12-02T02:17:17.055Z,11.35
2023-12-02T02:18:19.696Z,11.46
2023-12-02T02:19:23.217Z,11.29
2023-12-02T02:20:25.504Z,11.33
2023-12-02T02:21:30.318Z,11.28
2023-12-02T02:22:32.643Z,11.33
2023-12-02T02:23:35.873Z,11.12
2023-12-02T02:24:38.639Z,10.84
2023-12-02T02:25:41.858Z,10.96
2023-12-02T02:26:44.138Z,11.21
2023-12-02T02:27:47.477Z,11.22
2023-12-02T02:28:49.762Z,11.38
2023-12-02T02:29:52.206Z,11.13
2023-12-02T02:30:55.787Z,11.20
2023-12-02T02:31:58.041Z,11.22
2023-12-02T02:33:01.397Z,10.88
2023-12-02T02:34:03.700Z,10.93
2023-12-02T02:35:07.905Z,11.00
2023-12-02T02:36:11.114Z,10.95
2023-12-02T02:37:15.844Z,10.89
2023-12-02T02:38:18.365Z,10.92
2023-12-02T02:39:21.742Z,10.75
2023-12-02T02:40:24.059Z,10.77
2023-12-02T02:41:26.274Z,10.66
2023-12-02T02:42:29.601Z,10.44
2023-12-02T02:43:32.147Z,10.57
2023-12-02T02:44:35.517Z,10.64
2023-12-02T02:45:37.909Z,10.71
2023-12-02T02:46:41.265Z,10.64
2023-12-02T02:47:43.525Z,10.75
2023-12-02T02:48:46.854Z,10.70
2023-12-02T02:49:49.328Z,10.68
2023-12-02T02:50:52.764Z,10.82
2023-12-02T02:51:55.295Z,10.78
2023-12-02T02:53:00.084Z,10.83
2023-12-02T02:54:02.363Z,10.97
2023-12-02T02:55:06.206Z,11.12
2023-12-02T02:56:08.990Z,11.18
2023-12-02T02:57:12.429Z,11.14
2023-12-02T02:58:14.731Z,11.01
2023-12-02T02:59:18.072Z,10.89
2023-12-02T03:00:20.432Z,10.83
2023-12-02T03:01:23.856Z,10.81
2023-12-02T03:02:26.761Z,10.78
2023-12-02T03:03:30.486Z,10.79
2023-12-02T03:04:32.717Z,11.03
2023-12-02T03:05:36.114Z,11.37
2023-12-02T03:06:38.539Z,11.22
2023-12-02T03:07:42.246Z,11.56
2023-12-02T03:08:45.971Z,11.53
2023-12-02T03:09:49.241Z,11.49
2023-12-02T03:10:51.625Z,11.40
2023-12-02T03:11:54.960Z,11.35
2023-12-02T03:12:57.534Z,11.14
2023-12-02T03:14:01.078Z,11.02
2023-12-02T03:15:03.600Z,10.76
2023-12-02T03:16:07.415Z,10.58
2023-12-02T03:17:09.885Z,10.82
2023-12-02T03:18:13.326Z,10.91
2023-12-02T03:19:15.603Z,10.87
2023-12-02T03:20:19.155Z,11.06
2023-12-02T03:21:21.446Z,11.22
2023-12-02T03:22:24.816Z,11.22
2023-12-02T03:23:27.496Z,11.27
2023-12-02T03:24:32.302Z,11.23
2023-12-02T03:25:34.596Z,11.08
2023-12-02T03:26:38.200Z,11.10
2023-12-02T03:27:40.552Z,11.09
2023-12-02T03:28:42.761Z,11.03
2023-12-02T03:29:46.091Z,11.12
2023-12-02T03:30:48.472Z,10.99
2023-12-02T03:31:51.896Z,10.94
2023-12-02T03:32:54.935Z,10.96
2023-12-02T03:33:57.435Z,11.02
2023-12-02T03:35:00.796Z,11.14
2023-12-02T03:36:03.056Z,11.39
2023-12-02T03:37:06.493Z,11.42
2023-12-02T03:38:08.770Z,11.60
2023-12-02T03:39:13.856Z,11.74
2023-12-02T03:40:18.110Z,11.83
2023-12-02T03:41:20.541Z,11.81
2023-12-02T03:42:23.878Z,11.73
2023-12-02T03:43:26.153Z,11.68
2023-12-02T03:44:29.483Z,11.71
2023-12-02T03:45:31.709Z,11.52
2023-12-02T03:46:37.802Z,11.68
2023-12-02T03:47:40.469Z,11.66
2023-12-02T03:48:44.451Z,11.72
2023-12-02T03:49:46.751Z,11.74
2023-12-02T03:50:50.076Z,11.76
2023-12-02T03:51:52.370Z,11.63
2023-12-02T03:52:55.566Z,11.62
2023-12-02T03:53:58.100Z,11.66
2023-12-02T03:55:00.415Z,11.67
2023-12-02T03:56:07.171Z,11.58
2023-12-02T03:57:09.448Z,11.56
2023-12-02T03:58:12.719Z,11.48
2023-12-02T03:59:15.303Z,11.14
2023-12-02T04:00:20.909Z,11.33
2023-12-02T04:01:24.112Z,11.39
2023-12-02T04:02:27.647Z,11.57
2023-12-02T04:03:30.076Z,11.45
2023-12-02T04:04:33.655Z,11.53
2023-12-02T04:05:35.954Z,11.74
2023-12-02T04:06:40.012Z,11.72
2023-12-02T04:07:43.356Z,11.75
2023-12-02T04:08:45.682Z,11.72
2023-12-02T04:09:49.046Z,11.66
2023-12-02T04:10:51.412Z,11.55
2023-12-02T04:11:56.022Z,11.48
2023-12-02T04:12:58.598Z,11.26
2023-12-02T04:14:01.958Z,11.19
2023-12-02T04:15:06.034Z,11.16
2023-12-02T04:16:10.177Z,11.18
2023-12-02T04:17:12.809Z,11.20
2023-12-02T04:18:16.305Z,11.07
2023-12-02T04:19:18.803Z,10.91
2023-12-02T04:20:23.178Z,10.84
2023-12-02T04:21:28.228Z,10.88
2023-12-02T04:22:31.977Z,10.87
2023-12-02T04:23:35.068Z,10.97
2023-12-02T04:24:38.439Z,11.08
2023-12-02T04:25:40.737Z,11.18
2023-12-02T04:26:44.098Z,11.20
2023-12-02T04:27:47.751Z,11.13
2023-12-02T04:28:51.070Z,10.84
2023-12-02T04:29:53.345Z,10.61
2023-12-02T04:30:56.711Z,10.80
2023-12-02T04:31:59.053Z,10.88
2023-12-02T04:33:02.407Z,10.96
2023-12-02T04:34:05.781Z,10.87
2023-12-02T04:35:10.273Z,10.68
2023-12-02T04:36:12.982Z,10.73
2023-12-02T04:37:16.491Z,10.81
2023-12-02T04:38:20.044Z,10.77
2023-12-02T04:39:22.623Z,10.75
2023-12-02T04:40:26.424Z,10.93
2023-12-02T04:41:28.690Z,10.74
2023-12-02T04:42:31.987Z,10.74
2023-12-02T04:43:35.812Z,10.70
2023-12-02T04:44:39.493Z,10.58
2023-12-02T04:45:41.946Z,10.51
2023-12-02T04:46:46.053Z,10.34
2023-12-02T04:47:48.474Z,10.38
2023-12-02T04:48:51.915Z,10.31
2023-12-02T04:49:54.389Z,10.16
2023-12-02T04:50:57.646Z,10.18
2023-12-02T04:51:59.901Z,9.96
2023-12-02T04:53:03.761Z,9.91
2023-12-02T04:54:06.283Z,9.85
2023-12-02T04:55:09.590Z,9.86
2023-12-02T04:56:13.720Z,9.57
2023-12-02T04:57:16.760Z,9.47
2023-12-02T04:58:19.091Z,9.44
2023-12-02T04:59:23.795Z,9.45
2023-12-02T05:00:26.133Z,9.38
2023-12-02T05:01:29.896Z,9.72
2023-12-02T05:02:32.268Z,9.46
2023-12-02T05:03:35.641Z,9.26
2023-12-02T05:04:38.163Z,9.34
2023-12-02T05:05:41.689Z,9.48
2023-12-02T05:06:44.213Z,9.79
2023-12-02T05:07:48.060Z,10.05
2023-12-02T05:08:50.344Z,10.12
2023-12-02T05:09:53.664Z,9.91
2023-12-02T05:10:55.948Z,9.72
2023-12-02T05:11:59.439Z,9.86
2023-12-02T05:13:02.191Z,9.88
2023-12-02T05:14:05.624Z,9.82
2023-12-02T05:15:10.690Z,9.84
2023-12-02T05:16:14.410Z,10.06
2023-12-02T05:17:16.723Z,9.94
2023-12-02T05:18:20.146Z,10.08
2023-12-02T05:19:23.057Z,10.19
2023-12-02T05:20:26.362Z,10.37
2023-12-02T05:21:28.880Z,10.54
2023-12-02T05:22:32.418Z,10.51
2023-12-02T05:23:34.843Z,10.38
2023-12-02T05:24:39.627Z,10.14
2023-12-02T05:25:42.513Z,10.16
2023-12-02T05:26:44.849Z,10.15
2023-12-02T05:27:48.379Z,10.23
2023-12-02T05:28:51.803Z,10.43
2023-12-02T05:29:56.033Z,10.54
2023-12-02T05:30:59.964Z,10.55
2023-12-02T05:32:03.744Z,10.56
2023-12-02T05:33:06.279Z,10.56
2023-12-02T05:34:09.860Z,10.48
2023-12-02T05:35:12.850Z,10.50
2023-12-02T05:36:16.419Z,10.38
2023-12-02T05:37:18.701Z,10.38
2023-12-02T05:38:22.213Z,10.48
2023-12-02T05:39:24.705Z,10.47
2023-12-02T05:40:28.553Z,10.54
2023-12-02T05:41:30.776Z,10.74
2023-12-02T05:42:34.401Z,10.68
2023-12-02T05:43:36.890Z,10.73
2023-12-02T05:44:42.981Z,10.69
2023-12-02T05:45:45.611Z,10.58
2023-12-02T05:46:52.610Z,10.53
2023-12-02T05:47:54.998Z,10.54
2023-12-02T05:48:58.797Z,10.56
2023-12-02T05:50:01.349Z,10.46
2023-12-02T05:51:04.924Z,10.29
2023-12-02T05:52:07.349Z,10.37
2023-12-02T05:53:10.824Z,10.24
2023-12-02T05:54:13.144Z,9.86
2023-12-02T05:55:16.608Z,9.94
2023-12-02T05:56:19.869Z,9.97
2023-12-02T05:57:23.600Z,10.06
2023-12-02T05:58:26.179Z,9.89
2023-12-02T05:59:29.481Z,9.65
2023-12-02T06:00:31.815Z,9.80
2023-12-02T06:01:36.188Z,9.83
2023-12-02T06:02:39.950Z,9.80
2023-12-02T06:03:43.354Z,9.89
2023-12-02T06:04:45.843Z,10.12
2023-12-02T06:05:49.559Z,10.11
2023-12-02T06:06:51.887Z,10.03
2023-12-02T06:07:55.433Z,9.85
2023-12-02T06:08:57.752Z,9.70
2023-12-02T06:10:01.603Z,9.86
2023-12-02T06:11:04.056Z,9.79
2023-12-02T06:12:08.261Z,9.89
2023-12-02T06:13:10.629Z,9.72
2023-12-02T06:14:14.203Z,9.59
2023-12-02T06:15:16.629Z,9.70
2023-12-02T06:16:19.919Z,9.47
2023-12-02T06:17:22.629Z,9.61
2023-12-02T06:18:26.660Z,9.42
2023-12-02T06:19:30.262Z,9.44
2023-12-02T06:20:32.796Z,9.44
2023-12-02T06:21:36.241Z,9.58
2023-12-02T06:22:38.546Z,9.76
2023-12-02T06:23:41.855Z,9.76
2023-12-02T06:24:44.458Z,9.85
2023-12-02T06:25:47.923Z,9.60
2023-12-02T06:26:50.275Z,9.51
2023-12-02T06:27:53.605Z,9.44
2023-12-02T06:28:55.963Z,9.35
2023-12-02T06:29:59.337Z,9.36
2023-12-02T06:31:01.632Z,9.44
2023-12-02T06:32:05.080Z,9.34
2023-12-02T06:33:08.481Z,9.30
2023-12-02T06:34:12.173Z,9.31
2023-12-02T06:35:15.493Z,9.17
2023-12-02T06:36:17.967Z,9.26
2023-12-02T06:37:21.324Z,9.35
2023-12-02T06:38:23.568Z,9.63
2023-12-02T06:39:26.965Z,9.50
2023-12-02T06:40:29.546Z,9.54
2023-12-02T06:41:32.887Z,9.57
2023-12-02T06:42:36.316Z,9.47
2023-12-02T06:43:38.592Z,9.40
2023-12-02T06:44:46.418Z,9.33
2023-12-02T06:45:49.060Z,9.34
2023-12-02T06:46:52.453Z,9.28
2023-12-02T06:47:54.844Z,9.35
2023-12-02T06:48:58.343Z,9.34
2023-12-02T06:50:02.081Z,9.25
2023-12-02T06:51:06.203Z,9.42
2023-12-02T06:52:09.602Z,9.52
2023-12-02T06:53:15.151Z,9.23
2023-12-02T06:54:17.467Z,9.35
2023-12-02T06:56:27.737Z,9.55
2023-12-02T06:57:31.229Z,9.57
2023-12-02T06:58:38.333Z,9.62
2023-12-02T06:59:41.904Z,9.76
2023-12-02T07:00:44.160Z,9.86
2023-12-02T07:01:47.663Z,9.74
2023-12-02T07:02:50.130Z,9.90
2023-12-02T07:03:53.556Z,9.84
2023-12-02T07:04:55.831Z,9.88
2023-12-02T07:06:00.989Z,9.82
2023-12-02T07:07:03.420Z,9.77
2023-12-02T07:08:07.191Z,9.87
2023-12-02T07:09:09.582Z,9.96
2023-12-02T07:10:13.250Z,9.93
2023-12-02T07:11:15.719Z,9.85
2023-12-02T07:12:19.056Z,9.91
2023-12-02T07:13:21.331Z,10.18
2023-12-02T07:14:24.632Z,10.33
2023-12-02T07:15:27.700Z,10.50
2023-12-02T07:16:31.318Z,10.47
2023-12-02T07:17:34.300Z,10.30
2023-12-02T07:18:37.727Z,10.39
2023-12-02T07:19:40.575Z,10.13
2023-12-02T07:20:44.130Z,10.31
2023-12-02T07:21:47.899Z,10.25
2023-12-02T07:22:51.205Z,10.38
2023-12-02T07:23:53.646Z,10.29
2023-12-02T07:24:57.137Z,10.24
2023-12-02T07:26:00.097Z,10.17
2023-12-02T07:27:03.784Z,10.19
2023-12-02T07:28:06.282Z,10.23
2023-12-02T07:29:09.582Z,10.31
2023-12-02T07:31:19.550Z,10.40
2023-12-02T07:32:21.896Z,10.40
2023-12-02T07:33:26.009Z,10.68
2023-12-02T07:34:28.404Z,10.73
2023-12-02T07:35:32.721Z,10.76
2023-12-02T07:36:35.498Z,10.75
2023-12-02T07:37:40.494Z,10.61
2023-12-02T07:38:43.005Z,10.66
2023-12-02T07:39:47.079Z,10.81
2023-12-02T07:40:49.705Z,10.72
2023-12-02T07:41:53.085Z,10.85
2023-12-02T07:42:55.536Z,10.85
2023-12-02T07:43:59.189Z,11.11
2023-12-02T07:45:01.614Z,11.12
2023-12-02T07:46:05.169Z,11.22
2023-12-02T07:47:07.498Z,11.31
2023-12-02T07:48:12.006Z,11.55
2023-12-02T07:49:14.442Z,11.64
2023-12-02T07:50:18.272Z,11.78
2023-12-02T07:51:21.409Z,11.91
2023-12-02T07:52:25.730Z,12.02
2023-12-02T07:53:29.507Z,12.22
2023-12-02T07:54:33.667Z,12.25
2023-12-02T07:55:36.116Z,12.25
2023-12-02T07:56:40.544Z,12.27
2023-12-02T07:57:42.939Z,12.14
2023-12-02T07:58:46.195Z,12.14
2023-12-02T07:59:48.544Z,11.95
2023-12-02T08:00:50.866Z,11.84
2023-12-02T08:01:54.674Z,11.71
2023-12-02T08:02:57.151Z,11.40
2023-12-02T08:04:00.605Z,11.19
2023-12-02T08:06:10.822Z,11.34
2023-12-02T08:07:13.418Z,11.39
2023-12-02T08:08:16.816Z,11.68
2023-12-02T08:09:20.664Z,11.90
2023-12-02T08:10:23.301Z,11.97
2023-12-02T08:11:28.186Z,12.08
2023-12-02T08:12:30.579Z,12.32
2023-12-02T08:13:34.125Z,12.33
2023-12-02T08:14:36.507Z,12.28
2023-12-02T08:15:40.951Z,12.26
2023-12-02T08:16:43.638Z,12.31
2023-12-02T08:17:46.099Z,12.29
2023-12-02T08:18:49.587Z,12.38
2023-12-02T08:19:52.015Z,12.42
2023-12-02T08:20:55.518Z,12.43
2023-12-02T08:21:57.897Z,12.62
2023-12-02T08:23:01.301Z,12.45
2023-12-02T08:24:03.612Z,12.69
2023-12-02T08:25:09.383Z,12.92
2023-12-02T08:26:12.623Z,13.13
2023-12-02T08:27:14.786Z,13.31
2023-12-02T08:28:18.076Z,13.36
2023-12-02T08:29:20.531Z,13.50
2023-12-02T08:30:24.038Z,13.94
2023-12-02T08:31:26.503Z,14.12
2023-12-02T08:32:29.901Z,14.34
2023-12-02T08:33:32.169Z,14.52
2023-12-02T08:34:35.565Z,14.70
2023-12-02T08:35:37.824Z,14.88
2023-12-02T08:36:43.091Z,15.14
2023-12-02T08:37:45.344Z,15.34
2023-12-02T08:38:48.654Z,15.49
2023-12-02T08:39:50.967Z,15.68
2023-12-02T08:40:55.899Z,15.89
2023-12-02T08:41:58.526Z,16.01
2023-12-02T08:43:01.930Z,16.29
2023-12-02T08:44:04.950Z,16.29
2023-12-02T08:45:09.428Z,16.68
2023-12-02T08:46:15.185Z,16.81
2023-12-02T08:47:19.027Z,17.01
2023-12-02T08:48:21.648Z,16.43
2023-12-02T08:49:25.143Z,16.68
2023-12-02T08:50:27.424Z,16.90
2023-12-02T08:51:30.692Z,16.90
2023-12-02T08:52:33.032Z,16.82
2023-12-02T08:53:36.354Z,17.08
2023-12-02T08:54:38.635Z,17.22
2023-12-02T08:55:40.894Z,17.50
2023-12-02T08:56:46.154Z,17.64
2023-12-02T08:57:48.434Z,17.46
2023-12-02T08:58:52.512Z,17.30
2023-12-02T08:59:55.605Z,17.36
2023-12-02T09:00:58.909Z,17.78
2023-12-02T09:02:01.246Z,17.93
2023-12-02T09:03:04.917Z,17.61
2023-12-02T09:04:08.588Z,17.75
2023-12-02T09:05:11.951Z,17.78
2023-12-02T09:06:14.692Z,18.01
2023-12-02T09:07:18.116Z,18.01
2023-12-02T09:08:20.588Z,18.17
2023-12-02T09:09:24.211Z,18.25
2023-12-02T09:10:26.883Z,18.35
2023-12-02T09:11:30.255Z,18.03
2023-12-02T09:12:34.173Z,17.73
2023-12-02T09:13:45.281Z,18.01
2023-12-02T09:14:47.607Z,17.92
2023-12-02T09:15:51.069Z,18.17
2023-12-02T09:16:53.386Z,18.24
2023-12-02T09:18:08.878Z,17.60
2023-12-02T09:19:42.202Z,17.43
2023-12-02T09:20:47.901Z,17.63
2023-12-02T09:21:51.553Z,17.60
2023-12-02T09:22:56.916Z,17.91
2023-12-02T09:24:06.284Z,17.83
2023-12-02T09:25:08.642Z,18.12
2023-12-02T09:26:32.388Z,17.70
2023-12-02T09:28:17.055Z,17.83
2023-12-02T09:29:20.928Z,18.20
2023-12-02T09:30:23.618Z,18.43
2023-12-02T09:31:28.962Z,18.29
2023-12-02T09:32:46.593Z,18.32
2023-12-02T09:33:59.530Z,18.36
2023-12-02T09:35:02.546Z,18.62
2023-12-02T09:36:07.233Z,18.63
2023-12-02T09:37:33.457Z,19.08
2023-12-02T09:38:36.864Z,18.89
2023-12-02T09:40:12.990Z,19.65
2023-12-02T09:41:39.567Z,19.52
2023-12-02T09:42:42.109Z,20.13
2023-12-02T09:44:00.344Z,20.35
2023-12-02T09:45:07.797Z,20.69
2023-12-02T09:46:26.991Z,20.91
2023-12-02T09:47:38.647Z,20.88
2023-12-02T09:48:50.916Z,20.92
2023-12-02T09:50:08.202Z,21.13
2023-12-02T09:51:18.148Z,20.98
2023-12-02T09:52:31.061Z,21.04
2023-12-02T09:53:46.807Z,21.15
2023-12-02T09:54:59.871Z,20.93
2023-12-02T09:56:11.090Z,20.37
2023-12-02T09:57:19.462Z,20.86
2023-12-02T09:58:25.733Z,21.05
2023-12-02T09:59:42.317Z,20.54
2023-12-02T10:00:52.243Z,20.89
2023-12-02T10:02:05.908Z,20.55
2023-12-02T10:03:24.954Z,20.85
2023-12-02T10:04:44.725Z,21.12
2023-12-02T10:06:00.917Z,21.10
2023-12-02T10:07:11.193Z,21.33
2023-12-02T10:08:23.424Z,21.57
2023-12-02T10:09:44.184Z,21.94
2023-12-02T10:10:58.515Z,21.87
2023-12-02T10:12:14.198Z,21.71
2023-12-02T10:13:22.288Z,21.09
2023-12-02T10:14:29.701Z,21.05
2023-12-02T10:15:36.010Z,20.63
2023-12-02T10:16:42.375Z,20.72
2023-12-02T10:17:51.695Z,20.99
2023-12-02T10:18:59.112Z,21.09
2023-12-02T10:20:10.616Z,21.28
2023-12-02T10:21:15.853Z,21.50
2023-12-02T10:22:20.578Z,20.50
2023-12-02T10:23:26.330Z,20.37
2023-12-02T10:24:38.312Z,20.80
2023-12-02T10:25:43.028Z,21.17
2023-12-02T10:26:53.381Z,21.47
2023-12-02T10:28:03.431Z,21.39
2023-12-02T10:29:13.127Z,20.88
2023-12-02T10:30:18.130Z,20.49
2023-12-02T10:31:27.034Z,20.23
2023-12-02T10:32:35.281Z,19.88
2023-12-02T10:33:46.713Z,19.88
2023-12-02T10:35:01.827Z,20.39
2023-12-02T10:36:06.889Z,20.44
2023-12-02T10:37:13.716Z,19.92
2023-12-02T10:38:27.838Z,20.27
2023-12-02T10:39:41.961Z,20.43
2023-12-02T10:40:49.201Z,20.72
2023-12-02T10:42:00.657Z,20.94
2023-12-02T10:43:11.205Z,21.06
2023-12-02T10:44:18.348Z,21.16
2023-12-02T10:45:21.374Z,20.53
2023-12-02T10:46:27.107Z,20.89
2023-12-02T10:47:31.691Z,21.05
2023-12-02T10:48:35.991Z,21.16
2023-12-02T10:49:40.529Z,21.12
2023-12-02T10:50:44.254Z,20.93
2023-12-02T10:52:40.484Z,20.82
2023-12-02T10:53:16.861Z,20.92
2023-12-02T10:54:21.494Z,20.79
2023-12-02T10:55:26.619Z,20.62
2023-12-02T10:56:32.078Z,20.46
2023-12-02T10:57:35.975Z,20.69
2023-12-02T10:58:40.855Z,20.51
2023-12-02T10:59:52.321Z,20.18
2023-12-02T11:01:00.645Z,20.67
2023-12-02T11:02:21.845Z,20.67
2023-12-02T11:03:32.607Z,20.19
2023-12-02T11:04:43.790Z,20.14
2023-12-02T11:05:52.614Z,20.16
2023-12-02T11:06:59.833Z,20.39
2023-12-02T11:08:07.687Z,20.76
2023-12-02T11:09:19.225Z,21.01
2023-12-02T11:10:29.626Z,20.93
2023-12-02T11:11:49.208Z,21.15
2023-12-02T11:12:53.837Z,20.99
2023-12-02T11:14:03.160Z,20.88
2023-12-02T11:15:07.249Z,20.91
2023-12-02T11:16:21.403Z,20.68
2023-12-02T11:17:37.783Z,20.72
2023-12-02T11:18:50.562Z,20.40
2023-12-02T11:20:08.791Z,20.51
2023-12-02T11:21:21.717Z,20.14
2023-12-02T11:22:45.681Z,19.78
2023-12-02T11:23:59.842Z,19.85
2023-12-02T11:25:11.926Z,19.38
2023-12-02T11:26:24.317Z,19.70
2023-12-02T11:27:37.878Z,20.16
2023-12-02T11:28:51.933Z,20.17
2023-12-02T11:30:04.408Z,19.60
2023-12-02T11:31:23.628Z,19.53
2023-12-02T11:32:36.774Z,19.52
2023-12-02T11:33:53.063Z,19.69
2023-12-02T11:35:09.466Z,19.78
2023-12-02T11:36:18.850Z,19.98
2023-12-02T11:37:34.178Z,20.14
2023-12-02T11:38:43.141Z,20.33
2023-12-02T11:39:58.672Z,20.32
2023-12-02T11:41:17.038Z,20.08
2023-12-02T11:42:19.833Z,19.61
2023-12-02T11:43:39.905Z,19.30
2023-12-02T11:44:59.061Z,19.17
2023-12-02T11:46:08.176Z,19.31
2023-12-02T11:47:27.425Z,19.20
2023-12-02T11:48:39.343Z,19.37
2023-12-02T11:49:57.048Z,19.70
2023-12-02T11:51:18.102Z,19.17
2023-12-02T11:52:27.438Z,19.24
2023-12-02T11:53:46.252Z,19.48
2023-12-02T11:54:59.442Z,19.31
2023-12-02T11:56:11.344Z,19.86
2023-12-02T11:57:23.051Z,20.02
2023-12-02T11:58:29.563Z,19.85
2023-12-02T11:59:44.315Z,19.84
2023-12-02T12:01:01.476Z,20.06
2023-12-02T12:02:17.654Z,19.81
2023-12-02T12:03:43.905Z,19.71
2023-12-02T12:05:12.420Z,19.56
2023-12-02T12:06:30.885Z,19.59
2023-12-02T12:07:47.052Z,18.91
2023-12-02T12:09:03.138Z,18.52
2023-12-02T12:10:09.334Z,18.67
2023-12-02T12:11:17.700Z,18.97
2023-12-02T12:12:22.886Z,18.91
2023-12-02T12:13:31.805Z,19.22
2023-12-02T12:14:38.248Z,18.93
2023-12-02T12:15:43.264Z,19.21
2023-12-02T12:16:45.758Z,19.27
2023-12-02T12:17:49.553Z,19.62
2023-12-02T12:18:53.294Z,19.85
2023-12-02T12:20:00.574Z,19.93
2023-12-02T12:21:04.266Z,20.12
2023-12-02T12:22:08.059Z,20.15
2023-12-02T12:23:10.903Z,19.93
2023-12-02T12:24:14.916Z,20.19
2023-12-02T12:25:17.477Z,20.16
2023-12-02T12:26:20.828Z,20.08
2023-12-02T12:27:23.039Z,20.12
2023-12-02T12:28:27.813Z,19.71
2023-12-02T12:29:30.316Z,20.17
2023-12-02T12:30:47.015Z,20.16
2023-12-02T12:31:49.663Z,20.15
2023-12-02T12:32:53.158Z,19.90
2023-12-02T12:33:57.492Z,19.91
2023-12-02T12:35:01.129Z,19.85
2023-12-02T12:36:04.032Z,20.01
2023-12-02T12:37:11.141Z,20.11
2023-12-02T12:38:14.463Z,20.40
2023-12-02T12:39:20.470Z,20.19
2023-12-02T12:40:24.480Z,19.77
2023-12-02T12:41:28.369Z,19.89
2023-12-02T12:42:31.795Z,20.13
2023-12-02T12:43:39.186Z,19.71
2023-12-02T12:44:41.931Z,19.41
2023-12-02T12:45:45.452Z,19.22
2023-12-02T12:46:48.294Z,19.00
2023-12-02T12:47:53.544Z,19.12
2023-12-02T12:48:57.950Z,19.46
2023-12-02T12:50:04.985Z,19.67
2023-12-02T12:51:08.941Z,19.90
2023-12-02T12:52:15.695Z,19.77
2023-12-02T12:53:23.422Z,19.42
2023-12-02T12:54:29.791Z,19.52
2023-12-02T12:55:34.566Z,19.55
2023-12-02T12:56:47.186Z,19.54
2023-12-02T12:57:54.885Z,19.78
2023-12-02T12:59:02.798Z,19.94
2023-12-02T13:00:11.550Z,19.73
2023-12-02T13:01:18.279Z,19.63
2023-12-02T13:02:31.060Z,19.38
2023-12-02T13:03:48.198Z,19.45
2023-12-02T13:04:59.321Z,19.45
2023-12-02T13:06:14.817Z,19.69
2023-12-02T13:07:18.325Z,19.75
2023-12-02T13:08:26.404Z,19.35
2023-12-02T13:09:32.979Z,19.70
2023-12-02T13:10:36.766Z,20.06
2023-12-02T13:12:02.037Z,20.21
2023-12-02T13:13:06.831Z,20.53
2023-12-02T13:14:15.879Z,20.68
2023-12-02T13:15:21.487Z,20.34
2023-12-02T13:16:26.484Z,20.50
2023-12-02T13:17:29.079Z,20.08
2023-12-02T13:18:36.138Z,19.95
2023-12-02T13:19:45.031Z,19.82
2023-12-02T13:20:51.362Z,19.88
2023-12-02T13:21:54.698Z,19.91
2023-12-02T13:23:04.881Z,19.76
2023-12-02T13:24:10.136Z,19.49
2023-12-02T13:25:18.983Z,19.22
2023-12-02T13:26:32.128Z,19.48
2023-12-02T13:27:39.773Z,19.52
2023-12-02T13:28:44.423Z,19.86
2023-12-02T13:29:54.297Z,20.09
2023-12-02T13:30:58.574Z,19.99
2023-12-02T13:32:02.169Z,20.07
2023-12-02T13:33:13.262Z,20.12
2023-12-02T13:34:32.115Z,19.88
2023-12-02T13:35:38.735Z,19.63
2023-12-02T13:36:48.959Z,19.13
2023-12-02T13:38:07.981Z,19.16
2023-12-02T13:39:22.413Z,18.71
2023-12-02T13:40:31.696Z,17.90
2023-12-02T13:41:48.341Z,17.49
2023-12-02T13:42:53.238Z,17.01
2023-12-02T13:43:56.836Z,17.02
2023-12-02T13:45:05.799Z,16.87
2023-12-02T13:46:12.894Z,16.85
2023-12-02T13:47:24.442Z,16.78
2023-12-02T13:48:31.341Z,16.80
2023-12-02T13:49:40.838Z,16.60
2023-12-02T13:50:56.095Z,16.95
2023-12-02T13:52:10.463Z,17.08
2023-12-02T13:53:31.001Z,17.32
2023-12-02T13:54:45.656Z,17.57
2023-12-02T13:56:14.795Z,17.48
2023-12-02T13:57:24.776Z,18.04
2023-12-02T13:58:41.424Z,18.27
2023-12-02T13:59:47.906Z,18.60
2023-12-02T14:01:03.997Z,18.46
2023-12-02T14:02:22.130Z,18.12
2023-12-02T14:03:40.464Z,18.05
2023-12-02T14:04:57.815Z,17.50
2023-12-02T14:06:10.197Z,17.43
2023-12-02T14:07:23.513Z,17.21
2023-12-02T14:08:31.951Z,17.14
2023-12-02T14:09:40.301Z,17.01
2023-12-02T14:10:44.304Z,17.21
2023-12-02T14:11:57.444Z,17.19